sensor_id;sensor_type;location;lat;lon;timestamp;temperature;humidity
13713;DHT22;6928;50.546;7.120;2023-04-29T00:01:19;13.82;83.38
13713;DHT22;6928;50.546;7.120;2023-04-29T00:03:46;13.76;83.60
13713;DHT22;6928;50.546;7.120;2023-04-29T00:06:15;13.75;83.84
13713;DHT22;6928;50.546;7.120;2023-04-29T00:08:42;13.61;82.82
13713;DHT22;6928;50.546;7.120;2023-04-29T00:11:09;13.51;82.87
13713;DHT22;6928;50.546;7.120;2023-04-29T00:13:36;13.49;83.25
13713;DHT22;6928;50.546;7.120;2023-04-29T00:16:06;13.52;83.47
13713;DHT22;6928;50.546;7.120;2023-04-29T00:18:34;13.41;83.35
13713;DHT22;6928;50.546;7.120;2023-04-29T00:21:02;13.44;83.53
13713;DHT22;6928;50.546;7.120;2023-04-29T00:23:32;13.39;83.67
13713;DHT22;6928;50.546;7.120;2023-04-29T00:25:59;13.41;83.43
13713;DHT22;6928;50.546;7.120;2023-04-29T00:28:26;13.39;83.52
13713;DHT22;6928;50.546;7.120;2023-04-29T00:30:52;13.42;82.93
13713;DHT22;6928;50.546;7.120;2023-04-29T00:33:20;13.42;82.56
13713;DHT22;6928;50.546;7.120;2023-04-29T00:35:47;13.48;82.56
13713;DHT22;6928;50.546;7.120;2023-04-29T00:38:14;13.46;81.65
13713;DHT22;6928;50.546;7.120;2023-04-29T00:40:43;13.49;81.06
13713;DHT22;6928;50.546;7.120;2023-04-29T00:43:10;13.46;80.46
13713;DHT22;6928;50.546;7.120;2023-04-29T00:45:37;13.44;80.07
13713;DHT22;6928;50.546;7.120;2023-04-29T00:48:04;13.39;80.36
13713;DHT22;6928;50.546;7.120;2023-04-29T00:50:31;13.38;80.56
13713;DHT22;6928;50.546;7.120;2023-04-29T00:52:57;13.45;80.39
13713;DHT22;6928;50.546;7.120;2023-04-29T00:55:25;13.38;80.26
13713;DHT22;6928;50.546;7.120;2023-04-29T00:57:54;13.35;80.42
13713;DHT22;6928;50.546;7.120;2023-04-29T01:00:21;13.31;80.66
13713;DHT22;6928;50.546;7.120;2023-04-29T01:02:49;13.27;80.98
13713;DHT22;6928;50.546;7.120;2023-04-29T01:05:16;13.24;81.08
13713;DHT22;6928;50.546;7.120;2023-04-29T01:07:51;13.23;81.23
13713;DHT22;6928;50.546;7.120;2023-04-29T01:10:26;13.18;81.60
13713;DHT22;6928;50.546;7.120;2023-04-29T01:13:04;13.07;81.77
13713;DHT22;6928;50.546;7.120;2023-04-29T01:15:38;12.96;81.46
13713;DHT22;6928;50.546;7.120;2023-04-29T01:18:13;12.88;80.70
13713;DHT22;6928;50.546;7.120;2023-04-29T01:20:42;12.77;80.06
13713;DHT22;6928;50.546;7.120;2023-04-29T01:23:09;12.79;80.05
13713;DHT22;6928;50.546;7.120;2023-04-29T01:25:38;12.76;80.09
13713;DHT22;6928;50.546;7.120;2023-04-29T01:28:17;12.67;79.93
13713;DHT22;6928;50.546;7.120;2023-04-29T01:30:59;12.67;80.27
13713;DHT22;6928;50.546;7.120;2023-04-29T01:33:40;12.72;80.33
13713;DHT22;6928;50.546;7.120;2023-04-29T01:36:21;12.56;80.54
13713;DHT22;6928;50.546;7.120;2023-04-29T01:38:56;12.53;80.39
13713;DHT22;6928;50.546;7.120;2023-04-29T01:41:42;12.44;80.14
13713;DHT22;6928;50.546;7.120;2023-04-29T01:44:14;12.39;79.77
13713;DHT22;6928;50.546;7.120;2023-04-29T01:46:43;12.34;79.77
13713;DHT22;6928;50.546;7.120;2023-04-29T01:49:13;12.28;79.46
13713;DHT22;6928;50.546;7.120;2023-04-29T01:51:39;12.24;79.12
13713;DHT22;6928;50.546;7.120;2023-04-29T01:54:06;12.27;79.25
13713;DHT22;6928;50.546;7.120;2023-04-29T01:56:34;12.18;79.07
13713;DHT22;6928;50.546;7.120;2023-04-29T01:59:01;12.20;78.99
13713;DHT22;6928;50.546;7.120;2023-04-29T02:01:28;12.17;79.26
13713;DHT22;6928;50.546;7.120;2023-04-29T02:03:54;12.15;79.39
13713;DHT22;6928;50.546;7.120;2023-04-29T02:06:21;12.14;79.39
13713;DHT22;6928;50.546;7.120;2023-04-29T02:08:48;12.11;79.23
13713;DHT22;6928;50.546;7.120;2023-04-29T02:11:15;12.07;79.53
13713;DHT22;6928;50.546;7.120;2023-04-29T02:13:43;12.07;79.97
13713;DHT22;6928;50.546;7.120;2023-04-29T02:16:12;12.05;80.32
13713;DHT22;6928;50.546;7.120;2023-04-29T02:18:39;12.05;80.61
13713;DHT22;6928;50.546;7.120;2023-04-29T02:21:06;12.02;81.19
13713;DHT22;6928;50.546;7.120;2023-04-29T02:23:33;12.08;81.06
13713;DHT22;6928;50.546;7.120;2023-04-29T02:26:00;12.02;81.40
13713;DHT22;6928;50.546;7.120;2023-04-29T02:28:28;12.05;81.34
13713;DHT22;6928;50.546;7.120;2023-04-29T02:30:56;12.15;81.56
13713;DHT22;6928;50.546;7.120;2023-04-29T02:33:23;12.05;81.61
13713;DHT22;6928;50.546;7.120;2023-04-29T02:35:49;11.99;81.86
13713;DHT22;6928;50.546;7.120;2023-04-29T02:38:16;12.01;81.65
13713;DHT22;6928;50.546;7.120;2023-04-29T02:40:44;12.07;81.90
13713;DHT22;6928;50.546;7.120;2023-04-29T02:43:12;12.05;81.82
13713;DHT22;6928;50.546;7.120;2023-04-29T02:45:38;12.09;81.32
13713;DHT22;6928;50.546;7.120;2023-04-29T02:48:07;12.05;81.42
13713;DHT22;6928;50.546;7.120;2023-04-29T02:50:34;11.97;80.93
13713;DHT22;6928;50.546;7.120;2023-04-29T02:53:01;11.98;80.61
13713;DHT22;6928;50.546;7.120;2023-04-29T02:55:27;12.02;80.75
13713;DHT22;6928;50.546;7.120;2023-04-29T02:57:54;12.02;81.00
13713;DHT22;6928;50.546;7.120;2023-04-29T03:00:21;11.95;81.08
13713;DHT22;6928;50.546;7.120;2023-04-29T03:02:48;11.95;80.85
13713;DHT22;6928;50.546;7.120;2023-04-29T03:05:16;11.94;81.19
13713;DHT22;6928;50.546;7.120;2023-04-29T03:07:43;11.87;81.14
13713;DHT22;6928;50.546;7.120;2023-04-29T03:10:10;11.93;81.10
13713;DHT22;6928;50.546;7.120;2023-04-29T03:12:37;11.95;81.02
13713;DHT22;6928;50.546;7.120;2023-04-29T03:15:06;11.87;81.00
13713;DHT22;6928;50.546;7.120;2023-04-29T03:17:32;11.95;80.94
13713;DHT22;6928;50.546;7.120;2023-04-29T03:19:59;11.93;80.85
13713;DHT22;6928;50.546;7.120;2023-04-29T03:22:27;11.98;80.66
13713;DHT22;6928;50.546;7.120;2023-04-29T03:24:54;11.91;81.12
13713;DHT22;6928;50.546;7.120;2023-04-29T03:27:21;11.90;81.27
13713;DHT22;6928;50.546;7.120;2023-04-29T03:29:48;11.93;81.44
13713;DHT22;6928;50.546;7.120;2023-04-29T03:32:15;11.94;81.44
13713;DHT22;6928;50.546;7.120;2023-04-29T03:34:41;11.97;81.47
13713;DHT22;6928;50.546;7.120;2023-04-29T03:37:08;11.97;81.38
13713;DHT22;6928;50.546;7.120;2023-04-29T03:39:36;11.98;81.16
13713;DHT22;6928;50.546;7.120;2023-04-29T03:42:03;11.98;81.02
13713;DHT22;6928;50.546;7.120;2023-04-29T03:44:30;11.91;80.96
13713;DHT22;6928;50.546;7.120;2023-04-29T03:46:56;11.95;80.93
13713;DHT22;6928;50.546;7.120;2023-04-29T03:49:23;11.99;80.88
13713;DHT22;6928;50.546;7.120;2023-04-29T03:51:50;11.90;80.83
13713;DHT22;6928;50.546;7.120;2023-04-29T03:54:17;11.94;80.97
13713;DHT22;6928;50.546;7.120;2023-04-29T03:56:45;11.93;80.68
13713;DHT22;6928;50.546;7.120;2023-04-29T03:59:11;11.91;80.68
13713;DHT22;6928;50.546;7.120;2023-04-29T04:01:38;11.84;80.70
13713;DHT22;6928;50.546;7.120;2023-04-29T04:04:05;11.93;80.95
13713;DHT22;6928;50.546;7.120;2023-04-29T04:06:32;11.86;80.65
13713;DHT22;6928;50.546;7.120;2023-04-29T04:08:58;11.86;80.74
13713;DHT22;6928;50.546;7.120;2023-04-29T04:11:25;11.86;80.91
13713;DHT22;6928;50.546;7.120;2023-04-29T04:13:53;11.78;80.90
13713;DHT22;6928;50.546;7.120;2023-04-29T04:16:20;11.78;81.34
13713;DHT22;6928;50.546;7.120;2023-04-29T04:18:46;11.74;82.00
13713;DHT22;6928;50.546;7.120;2023-04-29T04:21:13;11.69;82.60
13713;DHT22;6928;50.546;7.120;2023-04-29T04:23:40;11.62;83.08
13713;DHT22;6928;50.546;7.120;2023-04-29T04:26:06;11.60;83.37
13713;DHT22;6928;50.546;7.120;2023-04-29T04:28:33;11.55;83.91
13713;DHT22;6928;50.546;7.120;2023-04-29T04:31:01;11.49;84.11
13713;DHT22;6928;50.546;7.120;2023-04-29T04:33:28;11.39;84.70
13713;DHT22;6928;50.546;7.120;2023-04-29T04:35:56;11.38;85.43
13713;DHT22;6928;50.546;7.120;2023-04-29T04:38:23;11.29;85.50
13713;DHT22;6928;50.546;7.120;2023-04-29T04:40:51;11.23;85.79
13713;DHT22;6928;50.546;7.120;2023-04-29T04:43:18;11.30;85.91
13713;DHT22;6928;50.546;7.120;2023-04-29T04:45:44;11.18;86.08
13713;DHT22;6928;50.546;7.120;2023-04-29T04:48:12;11.23;86.36
13713;DHT22;6928;50.546;7.120;2023-04-29T04:50:39;11.22;86.28
13713;DHT22;6928;50.546;7.120;2023-04-29T04:53:06;11.14;86.70
13713;DHT22;6928;50.546;7.120;2023-04-29T04:55:33;11.08;86.95
13713;DHT22;6928;50.546;7.120;2023-04-29T04:57:59;11.01;87.29
13713;DHT22;6928;50.546;7.120;2023-04-29T05:00:26;11.11;87.35
13713;DHT22;6928;50.546;7.120;2023-04-29T05:02:53;10.94;87.82
13713;DHT22;6928;50.546;7.120;2023-04-29T05:05:21;10.94;88.26
13713;DHT22;6928;50.546;7.120;2023-04-29T05:07:47;10.89;88.44
13713;DHT22;6928;50.546;7.120;2023-04-29T05:10:14;10.94;88.56
13713;DHT22;6928;50.546;7.120;2023-04-29T05:12:41;10.70;88.82
13713;DHT22;6928;50.546;7.120;2023-04-29T05:15:09;10.73;88.83
13713;DHT22;6928;50.546;7.120;2023-04-29T05:17:37;10.73;89.21
13713;DHT22;6928;50.546;7.120;2023-04-29T05:20:05;10.63;89.35
13713;DHT22;6928;50.546;7.120;2023-04-29T05:22:33;10.60;89.77
13713;DHT22;6928;50.546;7.120;2023-04-29T05:25:00;10.64;89.82
13713;DHT22;6928;50.546;7.120;2023-04-29T05:27:28;10.53;89.94
13713;DHT22;6928;50.546;7.120;2023-04-29T05:29:55;10.55;90.10
13713;DHT22;6928;50.546;7.120;2023-04-29T05:32:22;10.49;90.06
13713;DHT22;6928;50.546;7.120;2023-04-29T05:34:49;10.50;90.56
13713;DHT22;6928;50.546;7.120;2023-04-29T05:37:16;10.44;90.88
13713;DHT22;6928;50.546;7.120;2023-04-29T05:39:44;10.44;90.90
13713;DHT22;6928;50.546;7.120;2023-04-29T05:42:13;10.34;91.10
13713;DHT22;6928;50.546;7.120;2023-04-29T05:44:40;10.25;91.36
13713;DHT22;6928;50.546;7.120;2023-04-29T05:47:07;10.20;91.40
13713;DHT22;6928;50.546;7.120;2023-04-29T05:49:33;10.20;91.45
13713;DHT22;6928;50.546;7.120;2023-04-29T05:52:00;10.13;91.42
13713;DHT22;6928;50.546;7.120;2023-04-29T05:54:30;10.23;91.50
13713;DHT22;6928;50.546;7.120;2023-04-29T05:56:59;10.23;91.55
13713;DHT22;6928;50.546;7.120;2023-04-29T05:59:28;10.19;91.68
13713;DHT22;6928;50.546;7.120;2023-04-29T06:01:55;10.16;91.65
13713;DHT22;6928;50.546;7.120;2023-04-29T06:04:22;10.20;91.74
13713;DHT22;6928;50.546;7.120;2023-04-29T06:06:49;10.22;91.75
13713;DHT22;6928;50.546;7.120;2023-04-29T06:09:15;10.12;91.97
13713;DHT22;6928;50.546;7.120;2023-04-29T06:11:43;10.05;92.17
13713;DHT22;6928;50.546;7.120;2023-04-29T06:14:11;10.02;92.17
13713;DHT22;6928;50.546;7.120;2023-04-29T06:16:38;9.99;92.15
13713;DHT22;6928;50.546;7.120;2023-04-29T06:19:05;10.02;92.30
13713;DHT22;6928;50.546;7.120;2023-04-29T06:21:32;10.02;92.31
13713;DHT22;6928;50.546;7.120;2023-04-29T06:23:58;10.05;92.25
13713;DHT22;6928;50.546;7.120;2023-04-29T06:26:26;10.08;92.11
13713;DHT22;6928;50.546;7.120;2023-04-29T06:28:54;10.01;92.09
13713;DHT22;6928;50.546;7.120;2023-04-29T06:31:23;10.02;92.10
13713;DHT22;6928;50.546;7.120;2023-04-29T06:33:52;10.10;92.30
13713;DHT22;6928;50.546;7.120;2023-04-29T06:36:19;10.09;91.96
13713;DHT22;6928;50.546;7.120;2023-04-29T06:38:46;10.13;92.06
13713;DHT22;6928;50.546;7.120;2023-04-29T06:41:12;10.25;92.31
13713;DHT22;6928;50.546;7.120;2023-04-29T06:43:39;10.10;91.90
13713;DHT22;6928;50.546;7.120;2023-04-29T06:46:07;10.06;92.01
13713;DHT22;6928;50.546;7.120;2023-04-29T06:48:35;10.05;92.02
13713;DHT22;6928;50.546;7.120;2023-04-29T06:51:03;10.05;92.20
13713;DHT22;6928;50.546;7.120;2023-04-29T06:53:29;10.10;92.26
13713;DHT22;6928;50.546;7.120;2023-04-29T06:55:56;10.08;91.96
13713;DHT22;6928;50.546;7.120;2023-04-29T06:58:23;10.18;92.07
13713;DHT22;6928;50.546;7.120;2023-04-29T07:00:50;10.15;91.80
13713;DHT22;6928;50.546;7.120;2023-04-29T07:03:17;10.06;91.42
13713;DHT22;6928;50.546;7.120;2023-04-29T07:05:45;10.15;91.27
13713;DHT22;6928;50.546;7.120;2023-04-29T07:08:13;10.13;91.23
13713;DHT22;6928;50.546;7.120;2023-04-29T07:10:40;10.19;91.25
13713;DHT22;6928;50.546;7.120;2023-04-29T07:13:07;10.18;91.03
13713;DHT22;6928;50.546;7.120;2023-04-29T07:15:35;10.18;90.83
13713;DHT22;6928;50.546;7.120;2023-04-29T07:18:02;10.36;90.81
13713;DHT22;6928;50.546;7.120;2023-04-29T07:20:29;10.36;90.49
13713;DHT22;6928;50.546;7.120;2023-04-29T07:22:57;10.23;90.32
13713;DHT22;6928;50.546;7.120;2023-04-29T07:25:25;10.28;90.61
13713;DHT22;6928;50.546;7.120;2023-04-29T07:27:53;10.26;90.58
13713;DHT22;6928;50.546;7.120;2023-04-29T07:30:20;10.29;90.27
13713;DHT22;6928;50.546;7.120;2023-04-29T07:32:47;10.41;90.20
13713;DHT22;6928;50.546;7.120;2023-04-29T07:35:14;10.40;89.92
13713;DHT22;6928;50.546;7.120;2023-04-29T07:37:41;10.44;90.01
13713;DHT22;6928;50.546;7.120;2023-04-29T07:40:11;10.47;90.04
13713;DHT22;6928;50.546;7.120;2023-04-29T07:42:38;10.34;89.85
13713;DHT22;6928;50.546;7.120;2023-04-29T07:45:06;10.32;89.97
13713;DHT22;6928;50.546;7.120;2023-04-29T07:47:35;10.32;89.79
13713;DHT22;6928;50.546;7.120;2023-04-29T07:50:02;10.36;89.68
13713;DHT22;6928;50.546;7.120;2023-04-29T07:52:29;10.32;89.78
13713;DHT22;6928;50.546;7.120;2023-04-29T07:54:56;10.40;89.76
13713;DHT22;6928;50.546;7.120;2023-04-29T07:57:24;10.40;89.71
13713;DHT22;6928;50.546;7.120;2023-04-29T07:59:51;10.34;89.56
13713;DHT22;6928;50.546;7.120;2023-04-29T08:02:18;10.30;89.24
13713;DHT22;6928;50.546;7.120;2023-04-29T08:04:45;10.39;89.36
13713;DHT22;6928;50.546;7.120;2023-04-29T08:07:13;10.34;88.96
13713;DHT22;6928;50.546;7.120;2023-04-29T08:09:40;10.44;89.08
13713;DHT22;6928;50.546;7.120;2023-04-29T08:12:07;10.39;88.52
13713;DHT22;6928;50.546;7.120;2023-04-29T08:14:35;10.55;88.52
13713;DHT22;6928;50.546;7.120;2023-04-29T08:17:02;10.57;88.28
13713;DHT22;6928;50.546;7.120;2023-04-29T08:19:28;10.61;88.08
13713;DHT22;6928;50.546;7.120;2023-04-29T08:21:55;10.71;88.09
13713;DHT22;6928;50.546;7.120;2023-04-29T08:24:22;10.88;88.23
13713;DHT22;6928;50.546;7.120;2023-04-29T08:26:49;10.78;87.09
13713;DHT22;6928;50.546;7.120;2023-04-29T08:29:16;10.84;87.28
13713;DHT22;6928;50.546;7.120;2023-04-29T08:31:45;10.78;86.79
13713;DHT22;6928;50.546;7.120;2023-04-29T08:34:12;10.89;87.08
13713;DHT22;6928;50.546;7.120;2023-04-29T08:36:39;10.95;86.66
13713;DHT22;6928;50.546;7.120;2023-04-29T08:39:05;11.04;86.82
13713;DHT22;6928;50.546;7.120;2023-04-29T08:41:32;11.05;87.07
13713;DHT22;6928;50.546;7.120;2023-04-29T08:43:59;10.85;86.89
13713;DHT22;6928;50.546;7.120;2023-04-29T08:46:26;10.84;87.17
13713;DHT22;6928;50.546;7.120;2023-04-29T08:48:55;10.71;87.26
13713;DHT22;6928;50.546;7.120;2023-04-29T08:51:23;10.74;87.65
13713;DHT22;6928;50.546;7.120;2023-04-29T08:53:50;10.81;87.93
13713;DHT22;6928;50.546;7.120;2023-04-29T08:56:17;10.74;87.56
13713;DHT22;6928;50.546;7.120;2023-04-29T08:58:45;10.84;87.74
13713;DHT22;6928;50.546;7.120;2023-04-29T09:01:12;10.73;87.25
13713;DHT22;6928;50.546;7.120;2023-04-29T09:03:45;10.76;87.68
13713;DHT22;6928;50.546;7.120;2023-04-29T09:06:16;10.66;87.28
13713;DHT22;6928;50.546;7.120;2023-04-29T09:08:43;10.76;87.72
13713;DHT22;6928;50.546;7.120;2023-04-29T09:11:11;10.76;87.89
13713;DHT22;6928;50.546;7.120;2023-04-29T09:13:38;10.77;87.77
13713;DHT22;6928;50.546;7.120;2023-04-29T09:16:10;10.88;87.60
13713;DHT22;6928;50.546;7.120;2023-04-29T09:18:47;10.80;87.19
13713;DHT22;6928;50.546;7.120;2023-04-29T09:21:17;10.81;86.84
13713;DHT22;6928;50.546;7.120;2023-04-29T09:23:45;10.77;86.50
13713;DHT22;6928;50.546;7.120;2023-04-29T09:26:12;10.89;86.80
13713;DHT22;6928;50.546;7.120;2023-04-29T09:28:39;11.05;86.86
13713;DHT22;6928;50.546;7.120;2023-04-29T09:31:09;11.07;86.38
13713;DHT22;6928;50.546;7.120;2023-04-29T09:33:52;11.18;86.53
13713;DHT22;6928;50.546;7.120;2023-04-29T09:36:40;11.23;85.59
13713;DHT22;6928;50.546;7.120;2023-04-29T09:39:12;11.09;85.57
13713;DHT22;6928;50.546;7.120;2023-04-29T09:41:55;11.26;85.51
13713;DHT22;6928;50.546;7.120;2023-04-29T09:44:24;11.16;85.22
13713;DHT22;6928;50.546;7.120;2023-04-29T09:46:56;11.15;84.96
13713;DHT22;6928;50.546;7.120;2023-04-29T09:49:26;11.18;84.99
13713;DHT22;6928;50.546;7.120;2023-04-29T09:51:55;11.25;84.66
13713;DHT22;6928;50.546;7.120;2023-04-29T09:54:24;11.14;84.45
13713;DHT22;6928;50.546;7.120;2023-04-29T09:56:53;11.20;84.69
13713;DHT22;6928;50.546;7.120;2023-04-29T09:59:21;11.20;84.79
13713;DHT22;6928;50.546;7.120;2023-04-29T10:01:51;11.19;84.64
13713;DHT22;6928;50.546;7.120;2023-04-29T10:04:20;11.20;84.57
13713;DHT22;6928;50.546;7.120;2023-04-29T10:06:50;11.20;84.49
13713;DHT22;6928;50.546;7.120;2023-04-29T10:09:20;11.18;84.28
13713;DHT22;6928;50.546;7.120;2023-04-29T10:11:55;11.12;84.20
13713;DHT22;6928;50.546;7.120;2023-04-29T10:14:27;11.01;84.20
13713;DHT22;6928;50.546;7.120;2023-04-29T10:17:06;11.14;84.48
13713;DHT22;6928;50.546;7.120;2023-04-29T10:19:39;11.14;84.44
13713;DHT22;6928;50.546;7.120;2023-04-29T10:22:15;11.11;84.39
13713;DHT22;6928;50.546;7.120;2023-04-29T10:24:45;10.97;83.95
13713;DHT22;6928;50.546;7.120;2023-04-29T10:27:13;11.07;84.37
13713;DHT22;6928;50.546;7.120;2023-04-29T10:29:42;11.04;83.80
13713;DHT22;6928;50.546;7.120;2023-04-29T10:32:11;11.04;83.44
13713;DHT22;6928;50.546;7.120;2023-04-29T10:34:41;11.07;83.51
13713;DHT22;6928;50.546;7.120;2023-04-29T10:37:11;11.04;82.88
13713;DHT22;6928;50.546;7.120;2023-04-29T10:39:44;11.05;82.28
13713;DHT22;6928;50.546;7.120;2023-04-29T10:42:24;11.25;83.09
13713;DHT22;6928;50.546;7.120;2023-04-29T10:45:20;11.25;82.32
13713;DHT22;6928;50.546;7.120;2023-04-29T10:48:12;11.18;81.78
13713;DHT22;6928;50.546;7.120;2023-04-29T10:50:59;11.43;82.25
13713;DHT22;6928;50.546;7.120;2023-04-29T10:53:31;11.59;81.93
13713;DHT22;6928;50.546;7.120;2023-04-29T10:56:06;11.70;81.62
13713;DHT22;6928;50.546;7.120;2023-04-29T10:58:42;11.57;80.39
13713;DHT22;6928;50.546;7.120;2023-04-29T11:01:13;11.50;80.70
13713;DHT22;6928;50.546;7.120;2023-04-29T11:03:52;11.69;80.85
13713;DHT22;6928;50.546;7.120;2023-04-29T11:06:25;11.78;81.14
13713;DHT22;6928;50.546;7.120;2023-04-29T11:09:17;11.81;80.16
13713;DHT22;6928;50.546;7.120;2023-04-29T11:11:47;11.80;81.03
13713;DHT22;6928;50.546;7.120;2023-04-29T11:14:22;11.94;80.07
13713;DHT22;6928;50.546;7.120;2023-04-29T11:16:55;11.95;79.82
13713;DHT22;6928;50.546;7.120;2023-04-29T11:19:25;12.05;80.01
13713;DHT22;6928;50.546;7.120;2023-04-29T11:22:14;12.02;79.36
13713;DHT22;6928;50.546;7.120;2023-04-29T11:24:55;12.09;79.73
13713;DHT22;6928;50.546;7.120;2023-04-29T11:27:27;11.93;78.44
13713;DHT22;6928;50.546;7.120;2023-04-29T11:29:56;11.83;78.46
13713;DHT22;6928;50.546;7.120;2023-04-29T11:32:24;11.93;78.23
13713;DHT22;6928;50.546;7.120;2023-04-29T11:34:51;12.01;78.46
13713;DHT22;6928;50.546;7.120;2023-04-29T11:37:21;12.05;78.20
13713;DHT22;6928;50.546;7.120;2023-04-29T11:39:48;11.99;78.57
13713;DHT22;6928;50.546;7.120;2023-04-29T11:42:21;12.04;78.56
13713;DHT22;6928;50.546;7.120;2023-04-29T11:44:52;12.13;78.70
13713;DHT22;6928;50.546;7.120;2023-04-29T11:47:26;12.05;79.06
13713;DHT22;6928;50.546;7.120;2023-04-29T11:50:02;12.08;79.20
13713;DHT22;6928;50.546;7.120;2023-04-29T11:52:29;11.98;79.61
13713;DHT22;6928;50.546;7.120;2023-04-29T11:54:57;11.95;79.92
13713;DHT22;6928;50.546;7.120;2023-04-29T11:57:25;11.95;80.69
13713;DHT22;6928;50.546;7.120;2023-04-29T11:59:52;11.95;80.56
13713;DHT22;6928;50.546;7.120;2023-04-29T12:02:21;11.98;80.69
13713;DHT22;6928;50.546;7.120;2023-04-29T12:04:47;11.90;80.88
13713;DHT22;6928;50.546;7.120;2023-04-29T12:07:15;11.81;80.81
13713;DHT22;6928;50.546;7.120;2023-04-29T12:09:43;11.81;81.29
13713;DHT22;6928;50.546;7.120;2023-04-29T12:12:10;11.83;81.52
13713;DHT22;6928;50.546;7.120;2023-04-29T12:14:39;11.91;81.47
13713;DHT22;6928;50.546;7.120;2023-04-29T12:17:07;11.71;81.45
13713;DHT22;6928;50.546;7.120;2023-04-29T12:19:34;11.71;81.71
13713;DHT22;6928;50.546;7.120;2023-04-29T12:22:03;11.63;81.96
13713;DHT22;6928;50.546;7.120;2023-04-29T12:24:33;11.62;82.06
13713;DHT22;6928;50.546;7.120;2023-04-29T12:27:01;11.63;82.42
13713;DHT22;6928;50.546;7.120;2023-04-29T12:29:28;11.76;82.53
13713;DHT22;6928;50.546;7.120;2023-04-29T12:31:56;11.74;82.37
13713;DHT22;6928;50.546;7.120;2023-04-29T12:34:28;11.80;82.39
13713;DHT22;6928;50.546;7.120;2023-04-29T12:36:55;11.84;82.18
13713;DHT22;6928;50.546;7.120;2023-04-29T12:39:23;11.73;82.15
13713;DHT22;6928;50.546;7.120;2023-04-29T12:41:54;11.67;82.07
13713;DHT22;6928;50.546;7.120;2023-04-29T12:44:22;11.70;82.02
13713;DHT22;6928;50.546;7.120;2023-04-29T12:46:49;11.69;82.34
13713;DHT22;6928;50.546;7.120;2023-04-29T12:49:18;11.66;82.08
13713;DHT22;6928;50.546;7.120;2023-04-29T12:51:46;11.69;82.08
13713;DHT22;6928;50.546;7.120;2023-04-29T12:54:12;11.70;82.07
13713;DHT22;6928;50.546;7.120;2023-04-29T12:56:39;11.70;82.17
13713;DHT22;6928;50.546;7.120;2023-04-29T12:59:07;11.76;81.95
13713;DHT22;6928;50.546;7.120;2023-04-29T13:01:34;11.81;81.81
13713;DHT22;6928;50.546;7.120;2023-04-29T13:04:03;11.80;81.98
13713;DHT22;6928;50.546;7.120;2023-04-29T13:06:34;11.81;82.17
13713;DHT22;6928;50.546;7.120;2023-04-29T13:09:05;11.87;82.24
13713;DHT22;6928;50.546;7.120;2023-04-29T13:11:32;11.87;82.16
13713;DHT22;6928;50.546;7.120;2023-04-29T13:13:58;11.77;81.80
13713;DHT22;6928;50.546;7.120;2023-04-29T13:16:25;11.77;81.79
13713;DHT22;6928;50.546;7.120;2023-04-29T13:18:52;11.70;82.25
13713;DHT22;6928;50.546;7.120;2023-04-29T13:21:19;11.83;82.23
13713;DHT22;6928;50.546;7.120;2023-04-29T13:23:47;11.76;82.50
13713;DHT22;6928;50.546;7.120;2023-04-29T13:26:14;11.65;82.59
13713;DHT22;6928;50.546;7.120;2023-04-29T13:28:42;11.69;83.17
13713;DHT22;6928;50.546;7.120;2023-04-29T13:31:09;11.65;82.80
13713;DHT22;6928;50.546;7.120;2023-04-29T13:33:36;11.62;83.12
13713;DHT22;6928;50.546;7.120;2023-04-29T13:36:03;11.55;83.39
13713;DHT22;6928;50.546;7.120;2023-04-29T13:38:30;11.76;83.41
13713;DHT22;6928;50.546;7.120;2023-04-29T13:40:59;11.63;83.44
13713;DHT22;6928;50.546;7.120;2023-04-29T13:43:26;11.60;83.78
13713;DHT22;6928;50.546;7.120;2023-04-29T13:45:54;11.59;83.41
13713;DHT22;6928;50.546;7.120;2023-04-29T13:48:21;11.52;83.75
13713;DHT22;6928;50.546;7.120;2023-04-29T13:50:49;11.38;83.92
13713;DHT22;6928;50.546;7.120;2023-04-29T13:53:16;11.49;84.10
13713;DHT22;6928;50.546;7.120;2023-04-29T13:55:43;11.40;84.40
13713;DHT22;6928;50.546;7.120;2023-04-29T13:58:12;11.43;84.29
13713;DHT22;6928;50.546;7.120;2023-04-29T14:00:39;11.38;84.35
13713;DHT22;6928;50.546;7.120;2023-04-29T14:03:06;11.42;84.39
13713;DHT22;6928;50.546;7.120;2023-04-29T14:05:34;11.45;84.47
13713;DHT22;6928;50.546;7.120;2023-04-29T14:08:02;11.43;84.44
13713;DHT22;6928;50.546;7.120;2023-04-29T14:10:31;11.50;84.40
13713;DHT22;6928;50.546;7.120;2023-04-29T14:12:58;11.47;84.68
13713;DHT22;6928;50.546;7.120;2023-04-29T14:15:27;11.47;84.73
13713;DHT22;6928;50.546;7.120;2023-04-29T14:17:54;11.55;84.81
13713;DHT22;6928;50.546;7.120;2023-04-29T14:20:21;11.50;84.47
13713;DHT22;6928;50.546;7.120;2023-04-29T14:22:49;11.47;84.96
13713;DHT22;6928;50.546;7.120;2023-04-29T14:25:16;11.50;84.85
13713;DHT22;6928;50.546;7.120;2023-04-29T14:27:44;11.53;85.05
13713;DHT22;6928;50.546;7.120;2023-04-29T14:30:13;11.49;85.03
13713;DHT22;6928;50.546;7.120;2023-04-29T14:32:42;11.60;84.97
13713;DHT22;6928;50.546;7.120;2023-04-29T14:35:10;11.52;84.89
13713;DHT22;6928;50.546;7.120;2023-04-29T14:37:37;11.56;84.89
13713;DHT22;6928;50.546;7.120;2023-04-29T14:40:06;11.50;84.89
13713;DHT22;6928;50.546;7.120;2023-04-29T14:42:33;11.57;84.82
13713;DHT22;6928;50.546;7.120;2023-04-29T14:45:00;11.63;84.94
13713;DHT22;6928;50.546;7.120;2023-04-29T14:47:27;11.63;84.97
13713;DHT22;6928;50.546;7.120;2023-04-29T14:49:55;11.81;84.71
13713;DHT22;6928;50.546;7.120;2023-04-29T14:52:22;11.87;84.88
13713;DHT22;6928;50.546;7.120;2023-04-29T14:54:49;12.01;84.11
13713;DHT22;6928;50.546;7.120;2023-04-29T14:57:17;12.55;82.42
13713;DHT22;6928;50.546;7.120;2023-04-29T14:59:43;12.20;83.33
13713;DHT22;6928;50.546;7.120;2023-04-29T15:02:10;12.21;83.11
13713;DHT22;6928;50.546;7.120;2023-04-29T15:04:37;12.14;83.10
13713;DHT22;6928;50.546;7.120;2023-04-29T15:07:09;12.25;83.35
13713;DHT22;6928;50.546;7.120;2023-04-29T15:09:36;12.24;83.23
13713;DHT22;6928;50.546;7.120;2023-04-29T15:12:04;12.24;82.90
13713;DHT22;6928;50.546;7.120;2023-04-29T15:14:30;12.24;82.67
13713;DHT22;6928;50.546;7.120;2023-04-29T15:16:57;12.27;82.64
13713;DHT22;6928;50.546;7.120;2023-04-29T15:19:25;12.45;82.24
13713;DHT22;6928;50.546;7.120;2023-04-29T15:21:52;12.32;82.96
13713;DHT22;6928;50.546;7.120;2023-04-29T15:24:20;12.44;82.85
13713;DHT22;6928;50.546;7.120;2023-04-29T15:26:51;12.44;82.68
13713;DHT22;6928;50.546;7.120;2023-04-29T15:29:19;12.31;82.33
13713;DHT22;6928;50.546;7.120;2023-04-29T15:31:46;12.32;82.34
13713;DHT22;6928;50.546;7.120;2023-04-29T15:34:12;12.31;82.43
13713;DHT22;6928;50.546;7.120;2023-04-29T15:36:40;12.45;82.90
13713;DHT22;6928;50.546;7.120;2023-04-29T15:39:07;12.49;82.39
13713;DHT22;6928;50.546;7.120;2023-04-29T15:41:37;12.49;82.23
13713;DHT22;6928;50.546;7.120;2023-04-29T15:44:04;12.57;82.04
13713;DHT22;6928;50.546;7.120;2023-04-29T15:46:31;12.63;81.82
13713;DHT22;6928;50.546;7.120;2023-04-29T15:48:58;12.59;82.03
13713;DHT22;6928;50.546;7.120;2023-04-29T15:51:25;12.59;81.94
13713;DHT22;6928;50.546;7.120;2023-04-29T15:53:51;12.56;81.80